createdAt,value
2018-06-09T00:01:25.053Z,69.30
2018-06-09T00:03:53.323Z,69.70
2018-06-09T00:06:21.643Z,69.50
2018-06-09T00:08:49.887Z,69.40
2018-06-09T00:11:18.079Z,69.50
2018-06-09T00:13:46.382Z,69.50
2018-06-09T00:16:14.613Z,69.60
2018-06-09T00:18:42.906Z,69.70
2018-06-09T00:21:11.123Z,70.20
2018-06-09T00:23:39.355Z,70.20
2018-06-09T00:26:07.552Z,70.20
2018-06-09T00:28:35.952Z,70.40
2018-06-09T00:31:04.271Z,70.50
2018-06-09T00:33:32.479Z,70.60
2018-06-09T00:36:00.696Z,70.60
2018-06-09T00:38:29.008Z,70.80
2018-06-09T00:40:57.239Z,70.90
2018-06-09T00:43:25.691Z,71.10
2018-06-09T00:45:53.976Z,71.50
2018-06-09T00:48:22.207Z,71.30
2018-06-09T00:50:50.495Z,71.50
2018-06-09T00:53:18.763Z,71.60
2018-06-09T00:55:47.065Z,71.50
2018-06-09T00:58:15.235Z,71.40
2018-06-09T01:00:43.462Z,71.30
2018-06-09T01:03:11.707Z,71.40
2018-06-09T01:05:39.935Z,71.40
2018-06-09T01:08:08.231Z,71.60
2018-06-09T01:10:36.494Z,71.40
2018-06-09T01:13:04.731Z,71.00
2018-06-09T01:15:33.001Z,71.10
2018-06-09T01:18:01.267Z,71.20
2018-06-09T01:20:29.626Z,71.20
2018-06-09T01:22:57.859Z,71.30
2018-06-09T01:25:27.762Z,71.40
2018-06-09T01:27:56.007Z,71.60
2018-06-09T01:30:24.269Z,71.50
2018-06-09T01:32:52.527Z,71.40
2018-06-09T01:35:20.761Z,71.70
2018-06-09T01:37:49.511Z,71.90
2018-06-09T01:40:17.772Z,71.90
2018-06-09T01:42:46.015Z,71.90
2018-06-09T01:45:14.381Z,72.00
2018-06-09T01:47:42.600Z,71.80
2018-06-09T01:50:10.819Z,71.70
2018-06-09T01:52:39.193Z,71.70
2018-06-09T01:55:07.440Z,71.70
2018-06-09T01:57:35.712Z,71.70
2018-06-09T02:00:03.964Z,71.70
2018-06-09T02:02:32.984Z,71.60
2018-06-09T02:05:01.258Z,71.60
2018-06-09T02:07:29.503Z,71.80
2018-06-09T02:09:57.807Z,71.90
2018-06-09T02:12:26.051Z,72.20
2018-06-09T02:17:22.288Z,72.90
2018-06-09T02:19:50.610Z,73.10
2018-06-09T02:22:18.891Z,73.30
2018-06-09T02:24:47.099Z,73.30
2018-06-09T02:27:15.327Z,73.20
2018-06-09T02:29:43.600Z,73.40
2018-06-09T02:32:11.886Z,73.20
2018-06-09T02:34:40.167Z,73.50
2018-06-09T02:37:08.476Z,73.50
2018-06-09T02:42:04.628Z,73.40
2018-06-09T02:44:32.937Z,73.40
2018-06-09T02:47:01.267Z,73.30
2018-06-09T02:49:29.500Z,73.20
2018-06-09T02:51:57.724Z,73.20
2018-06-09T02:54:25.943Z,73.40
2018-06-09T02:56:54.243Z,73.60
2018-06-09T02:59:22.557Z,73.70
2018-06-09T03:01:50.853Z,74.10
2018-06-09T03:04:19.095Z,74.20
2018-06-09T03:06:47.692Z,74.10
2018-06-09T03:09:15.963Z,74.20
2018-06-09T03:11:44.316Z,74.10
2018-06-09T03:14:12.567Z,74.00
2018-06-09T03:16:40.805Z,73.90
2018-06-09T03:19:09.111Z,73.80
2018-06-09T03:21:37.320Z,73.80
2018-06-09T03:24:05.615Z,73.90
2018-06-09T03:26:33.870Z,74.00
2018-06-09T03:31:30.155Z,73.90
2018-06-09T03:33:58.448Z,74.10
2018-06-09T03:36:26.675Z,74.10
2018-06-09T03:38:54.936Z,73.90
2018-06-09T03:41:23.176Z,73.90
2018-06-09T03:43:51.479Z,74.10
2018-06-09T03:46:19.835Z,74.10
2018-06-09T03:48:48.506Z,73.90
2018-06-09T03:51:16.760Z,73.80
2018-06-09T03:53:44.980Z,73.90
2018-06-09T03:56:13.216Z,73.80
2018-06-09T03:58:41.534Z,73.70
2018-06-09T04:01:09.910Z,73.70
2018-06-09T04:03:38.171Z,73.70
2018-06-09T04:06:06.447Z,73.60
2018-06-09T04:08:34.717Z,73.70
2018-06-09T04:11:02.999Z,73.70
2018-06-09T04:13:31.288Z,73.80
2018-06-09T04:15:59.561Z,73.90
2018-06-09T04:18:27.840Z,74.10
2018-06-09T04:20:56.527Z,74.10
2018-06-09T04:23:24.735Z,74.00
2018-06-09T04:25:52.997Z,74.10
2018-06-09T04:28:21.316Z,73.90
2018-06-09T04:30:49.498Z,74.00
2018-06-09T04:33:17.835Z,74.00
2018-06-09T04:35:46.048Z,74.10
2018-06-09T04:38:14.312Z,74.00
2018-06-09T04:40:42.567Z,74.00
2018-06-09T04:43:10.842Z,74.00
2018-06-09T04:45:39.059Z,73.80
2018-06-09T04:48:07.338Z,73.60
2018-06-09T04:50:35.663Z,73.40
2018-06-09T04:53:03.939Z,73.50
2018-06-09T04:55:33.243Z,73.50
2018-06-09T04:58:01.576Z,73.50
2018-06-09T05:00:29.875Z,73.50
2018-06-09T05:02:58.147Z,73.60
2018-06-09T05:05:26.399Z,73.70
2018-06-09T05:07:54.636Z,73.90
2018-06-09T05:10:22.976Z,73.90
2018-06-09T05:12:51.400Z,73.70
2018-06-09T05:15:19.632Z,73.70
2018-06-09T05:17:47.905Z,73.70
2018-06-09T05:20:16.146Z,73.30
2018-06-09T05:22:44.971Z,73.20
2018-06-09T05:25:13.180Z,73.00
2018-06-09T05:27:41.497Z,72.80
2018-06-09T05:30:09.687Z,72.60
2018-06-09T05:32:37.968Z,72.60
2018-06-09T05:35:06.219Z,72.80
2018-06-09T05:37:34.471Z,72.60
2018-06-09T05:40:02.685Z,72.40
2018-06-09T05:42:31.157Z,72.20
2018-06-09T05:44:59.453Z,71.80
2018-06-09T05:47:27.663Z,71.80
2018-06-09T05:49:55.947Z,71.40
2018-06-09T05:52:24.248Z,71.20
2018-06-09T05:54:52.459Z,70.70
2018-06-09T05:57:20.796Z,70.60
2018-06-09T05:59:49.031Z,70.40
2018-06-09T06:02:17.265Z,70.60
2018-06-09T06:04:45.570Z,70.50
2018-06-09T06:07:13.830Z,70.40
2018-06-09T06:09:42.127Z,70.30
2018-06-09T06:12:10.348Z,69.60
2018-06-09T06:14:39.745Z,69.50
2018-06-09T06:17:08.016Z,69.60
2018-06-09T06:19:36.227Z,69.10
2018-06-09T06:22:04.560Z,69.40
2018-06-09T06:24:32.799Z,69.00
2018-06-09T06:27:01.007Z,68.40
2018-06-09T06:29:29.284Z,68.40
2018-06-09T06:31:57.602Z,68.60
2018-06-09T06:34:25.852Z,68.40
2018-06-09T06:36:54.108Z,68.20
2018-06-09T06:39:22.343Z,67.40
2018-06-09T06:41:50.661Z,67.50
2018-06-09T06:44:18.923Z,67.50
2018-06-09T06:46:47.211Z,67.00
2018-06-09T06:49:15.395Z,67.50
2018-06-09T06:51:43.663Z,67.20
2018-06-09T06:54:11.969Z,66.70
2018-06-09T06:56:40.242Z,67.30
2018-06-09T06:59:08.606Z,67.40
2018-06-09T07:01:36.815Z,66.60
2018-06-09T07:04:05.025Z,65.90
2018-06-09T07:06:33.307Z,66.30
2018-06-09T07:09:01.525Z,66.10
2018-06-09T07:11:29.739Z,66.20
2018-06-09T07:13:58.020Z,64.70
2018-06-09T07:16:26.315Z,65.00
2018-06-09T07:18:54.702Z,65.30
2018-06-09T07:21:23.091Z,65.20
2018-06-09T07:23:51.404Z,64.70
2018-06-09T07:26:19.809Z,64.30
2018-06-09T07:28:48.142Z,64.00
2018-06-09T07:31:16.672Z,64.00
2018-06-09T07:33:44.937Z,63.50
2018-06-09T07:36:13.376Z,62.50
2018-06-09T07:38:41.632Z,62.70
2018-06-09T07:41:09.877Z,63.10
2018-06-09T07:43:39.196Z,62.90
2018-06-09T07:46:07.498Z,63.30
2018-06-09T07:48:35.810Z,62.90
2018-06-09T07:51:04.122Z,62.90
2018-06-09T07:53:32.408Z,62.40
2018-06-09T07:56:00.738Z,61.90
2018-06-09T07:58:29.081Z,61.70
2018-06-09T08:00:58.248Z,61.90
2018-06-09T08:03:26.534Z,61.30
2018-06-09T08:05:54.808Z,61.00
2018-06-09T08:08:23.135Z,61.20
2018-06-09T08:10:52.017Z,61.10
2018-06-09T08:13:20.265Z,60.90
2018-06-09T08:15:48.662Z,60.90
2018-06-09T08:18:16.946Z,60.90
2018-06-09T08:20:45.234Z,60.90
2018-06-09T08:23:13.509Z,60.30
2018-06-09T08:25:41.820Z,60.00
2018-06-09T08:28:10.118Z,59.30
2018-06-09T08:30:38.512Z,58.90
2018-06-09T08:33:06.853Z,59.30
2018-06-09T08:35:35.101Z,60.10
2018-06-09T08:38:03.424Z,59.60
2018-06-09T08:40:31.695Z,58.80
2018-06-09T08:42:59.890Z,58.30
2018-06-09T08:45:28.237Z,58.30
2018-06-09T08:47:56.520Z,58.40
2018-06-09T08:50:24.751Z,58.10
2018-06-09T08:52:53.035Z,58.10
2018-06-09T08:55:21.325Z,57.60
2018-06-09T08:57:50.731Z,57.60
2018-06-09T09:00:19.062Z,57.80
2018-06-09T09:02:47.427Z,58.20
2018-06-09T09:05:15.665Z,58.50
2018-06-09T09:07:43.918Z,58.10
2018-06-09T09:10:12.198Z,57.60
2018-06-09T09:12:40.468Z,58.10
2018-06-09T09:15:08.722Z,57.50
2018-06-09T09:17:36.930Z,57.40
2018-06-09T09:20:05.168Z,56.70
2018-06-09T09:22:33.506Z,56.50
2018-06-09T09:25:01.803Z,56.00
2018-06-09T09:27:30.076Z,56.10
2018-06-09T09:29:58.407Z,55.50
2018-06-09T09:34:54.728Z,53.50
2018-06-09T09:37:22.987Z,51.80
2018-06-09T09:39:51.226Z,51.50
2018-06-09T09:44:47.480Z,49.10
2018-06-09T09:47:15.948Z,48.20
2018-06-09T09:49:44.216Z,47.20
2018-06-09T09:52:12.455Z,46.60
2018-06-09T09:54:40.948Z,46.50
2018-06-09T09:57:09.257Z,46.20
2018-06-09T09:59:37.553Z,45.80
2018-06-09T10:02:05.945Z,45.40
2018-06-09T10:04:34.243Z,46.30
2018-06-09T10:07:02.540Z,47.00
2018-06-09T10:09:30.792Z,47.20
2018-06-09T10:11:59.109Z,48.30
2018-06-09T10:14:27.438Z,49.00
2018-06-09T10:16:55.969Z,49.50
2018-06-09T10:19:24.256Z,49.90
2018-06-09T10:21:52.626Z,50.90
2018-06-09T10:24:20.926Z,50.80
2018-06-09T10:26:49.277Z,51.50
2018-06-09T10:29:17.503Z,52.10
2018-06-09T10:31:45.733Z,52.30
2018-06-09T10:34:14.024Z,52.70
2018-06-09T10:36:42.320Z,53.50
2018-06-09T10:39:10.579Z,54.00
2018-06-09T10:41:38.867Z,53.60
2018-06-09T10:44:07.167Z,53.20
2018-06-09T10:46:35.469Z,52.90
2018-06-09T10:51:32.207Z,52.50
2018-06-09T10:54:01.544Z,53.20
2018-06-09T10:56:29.820Z,52.80
2018-06-09T10:58:58.221Z,53.30
2018-06-09T11:01:27.157Z,53.10
2018-06-09T11:03:55.541Z,53.60
2018-06-09T11:06:23.922Z,53.50
2018-06-09T11:08:52.174Z,52.80
2018-06-09T11:11:20.409Z,53.10
2018-06-09T11:13:48.715Z,53.60
2018-06-09T11:16:17.052Z,53.20
2018-06-09T11:18:45.337Z,53.30
2018-06-09T11:21:13.661Z,53.70
2018-06-09T11:23:42.009Z,53.50
2018-06-09T11:26:10.350Z,53.80
2018-06-09T11:28:38.618Z,53.40
2018-06-09T11:31:07.019Z,53.30
2018-06-09T11:33:35.275Z,53.50
2018-06-09T11:36:03.605Z,53.80
2018-06-09T11:38:31.866Z,53.80
2018-06-09T11:41:00.179Z,53.30
2018-06-09T11:43:28.449Z,54.00
2018-06-09T11:45:56.904Z,52.90
2018-06-09T11:48:25.327Z,53.00
2018-06-09T11:50:53.602Z,52.70
2018-06-09T11:53:21.904Z,53.00
2018-06-09T11:55:50.286Z,53.60
2018-06-09T11:58:18.590Z,52.30
2018-06-09T12:00:46.902Z,51.80
2018-06-09T12:03:15.148Z,51.60
2018-06-09T12:05:43.656Z,51.90
2018-06-09T12:08:11.915Z,52.00
2018-06-09T12:10:40.291Z,52.10
2018-06-09T12:13:09.234Z,52.80
2018-06-09T12:15:37.509Z,52.30
2018-06-09T12:18:05.888Z,51.80
2018-06-09T12:20:34.308Z,51.00
2018-06-09T12:23:02.676Z,50.10
2018-06-09T12:25:31.058Z,51.60
2018-06-09T12:27:59.343Z,50.70
2018-06-09T12:30:27.688Z,51.70
2018-06-09T12:32:56.048Z,49.90
2018-06-09T12:35:24.403Z,49.70
2018-06-09T12:37:52.648Z,50.50
2018-06-09T12:40:20.871Z,50.40
2018-06-09T12:42:49.241Z,49.10
2018-06-09T12:45:17.581Z,49.10
2018-06-09T12:47:45.851Z,50.20
2018-06-09T12:50:14.696Z,50.60
2018-06-09T12:52:43.101Z,50.00
2018-06-09T12:55:11.530Z,50.20
2018-06-09T12:57:39.747Z,49.90
2018-06-09T13:00:08.075Z,49.60
2018-06-09T13:02:36.341Z,49.10
2018-06-09T13:05:04.658Z,49.60
2018-06-09T13:07:32.921Z,49.00
2018-06-09T13:10:01.204Z,48.70
2018-06-09T13:12:29.431Z,48.10
2018-06-09T13:14:57.745Z,49.00
2018-06-09T13:17:26.044Z,48.50
2018-06-09T13:19:54.373Z,48.90
2018-06-09T13:22:22.729Z,48.70
2018-06-09T13:24:51.068Z,48.70
2018-06-09T13:27:19.373Z,48.50
2018-06-09T13:29:47.675Z,48.70
2018-06-09T13:32:16.097Z,49.00
2018-06-09T13:34:44.412Z,48.80
2018-06-09T13:37:12.685Z,47.80
2018-06-09T13:39:40.940Z,48.30
2018-06-09T13:42:09.231Z,47.70
2018-06-09T13:44:37.596Z,47.00
2018-06-09T13:47:06.916Z,46.80
2018-06-09T13:49:35.149Z,46.20
2018-06-09T13:52:03.416Z,46.00
2018-06-09T13:54:31.729Z,46.40
2018-06-09T13:57:00.044Z,46.30
2018-06-09T13:59:28.447Z,45.10
2018-06-09T14:01:56.704Z,45.10
2018-06-09T14:04:25.038Z,46.40
2018-06-09T14:06:53.377Z,47.20
2018-06-09T14:11:49.682Z,48.10
2018-06-09T14:14:18.228Z,48.70
2018-06-09T14:16:46.509Z,49.60
2018-06-09T14:19:15.896Z,49.60
2018-06-09T14:21:44.226Z,50.00
2018-06-09T14:24:12.545Z,49.60
2018-06-09T14:26:40.876Z,49.70
2018-06-09T14:29:09.135Z,49.60
2018-06-09T14:31:37.411Z,51.70
2018-06-09T14:34:05.780Z,58.20
2018-06-09T14:36:34.036Z,63.50
2018-06-09T14:39:02.337Z,64.00
2018-06-09T14:41:30.610Z,64.60
2018-06-09T14:43:58.987Z,66.20
2018-06-09T14:46:27.399Z,67.50
2018-06-09T14:48:56.783Z,68.70
2018-06-09T14:51:26.286Z,71.40
2018-06-09T14:53:55.365Z,68.00
2018-06-09T14:56:23.620Z,70.10
2018-06-09T14:58:51.943Z,71.60
2018-06-09T15:03:48.413Z,73.70
2018-06-09T15:06:17.208Z,75.70
2018-06-09T15:08:45.539Z,76.50
2018-06-09T15:11:14.053Z,77.70
2018-06-09T15:13:42.876Z,78.30
2018-06-09T15:16:11.214Z,79.00
2018-06-09T15:18:39.491Z,79.40
2018-06-09T15:21:08.489Z,79.40
2018-06-09T15:23:36.826Z,79.80
2018-06-09T15:26:05.199Z,80.30
2018-06-09T15:28:33.555Z,80.50
2018-06-09T15:31:02.061Z,80.30
2018-06-09T15:33:30.353Z,79.70
2018-06-09T15:35:58.685Z,79.60
2018-06-09T15:38:27.707Z,80.10
2018-06-09T15:40:56.023Z,80.50
2018-06-09T15:43:24.452Z,81.10
2018-06-09T15:45:52.783Z,81.60
2018-06-09T15:48:21.179Z,81.70
2018-06-09T15:50:49.455Z,82.20
2018-06-09T15:53:17.840Z,82.00
2018-06-09T15:55:46.135Z,81.60
2018-06-09T15:58:14.433Z,80.30
2018-06-09T16:00:42.828Z,80.20
2018-06-09T16:03:11.776Z,80.00
2018-06-09T16:05:40.048Z,79.80
2018-06-09T16:08:08.328Z,79.50
2018-06-09T16:10:36.631Z,79.00
2018-06-09T16:13:05.007Z,79.10
2018-06-09T16:15:33.275Z,80.30
2018-06-09T16:18:01.549Z,80.90
2018-06-09T16:20:29.802Z,81.00
2018-06-09T16:22:58.170Z,80.70
2018-06-09T16:25:26.679Z,79.10
2018-06-09T16:27:55.036Z,79.20
2018-06-09T16:30:23.369Z,78.90
2018-06-09T16:32:51.801Z,77.80
2018-06-09T16:35:20.074Z,77.40
2018-06-09T16:37:48.413Z,76.80
2018-06-09T16:40:16.748Z,76.30
2018-06-09T16:42:45.128Z,76.30
2018-06-09T16:45:13.445Z,77.00
2018-06-09T16:47:41.834Z,76.80
2018-06-09T16:50:10.276Z,76.70
2018-06-09T16:52:38.562Z,76.80
2018-06-09T16:55:06.800Z,76.90
2018-06-09T16:57:35.040Z,75.40
2018-06-09T17:00:03.293Z,75.60
2018-06-09T17:02:31.647Z,75.40
2018-06-09T17:04:59.964Z,76.40
2018-06-09T17:07:28.263Z,76.60
2018-06-09T17:09:56.479Z,77.20
2018-06-09T17:12:24.775Z,77.80
2018-06-09T17:14:53.205Z,78.20
2018-06-09T17:17:21.665Z,78.70
2018-06-09T17:19:49.921Z,79.10
2018-06-09T17:22:18.260Z,79.30
2018-06-09T17:24:46.592Z,79.80
2018-06-09T17:27:15.832Z,79.90
2018-06-09T17:29:44.144Z,79.40
2018-06-09T17:32:12.635Z,79.30
2018-06-09T17:34:41.115Z,78.30
2018-06-09T17:37:09.485Z,78.20
2018-06-09T17:39:37.821Z,78.60
2018-06-09T17:42:06.169Z,78.40
2018-06-09T17:44:34.452Z,79.20
2018-06-09T17:47:02.707Z,79.30
2018-06-09T17:49:30.996Z,79.40
2018-06-09T17:51:59.415Z,79.10
2018-06-09T17:54:27.839Z,79.00
2018-06-09T17:56:56.104Z,79.00
2018-06-09T17:59:24.345Z,77.40
2018-06-09T18:01:52.609Z,77.00
2018-06-09T18:04:20.939Z,75.80
2018-06-09T18:06:49.217Z,76.10
2018-06-09T18:09:17.778Z,76.00
2018-06-09T18:11:46.068Z,76.30
2018-06-09T18:14:14.360Z,77.90
2018-06-09T18:16:42.712Z,78.40
2018-06-09T18:19:11.383Z,77.70
2018-06-09T18:21:39.699Z,77.00
2018-06-09T18:24:08.076Z,76.30
2018-06-09T18:26:36.423Z,76.40
2018-06-09T18:29:04.796Z,76.10
2018-06-09T18:34:01.188Z,76.20
2018-06-09T18:36:29.443Z,76.40
2018-06-09T18:38:57.792Z,75.70
2018-06-09T18:41:26.083Z,76.60
2018-06-09T18:43:54.347Z,77.50
2018-06-09T18:46:22.737Z,77.90
2018-06-09T18:48:51.060Z,77.60
2018-06-09T18:53:47.472Z,75.90
2018-06-09T18:56:15.790Z,76.20
2018-06-09T18:58:44.117Z,77.60
2018-06-09T19:01:12.398Z,77.90
2018-06-09T19:03:40.685Z,78.30
2018-06-09T19:06:08.992Z,78.20
2018-06-09T19:08:37.232Z,78.60
2018-06-09T19:11:05.595Z,78.60
2018-06-09T19:13:33.849Z,79.40
2018-06-09T19:16:02.087Z,79.30
2018-06-09T19:18:30.377Z,79.50
2018-06-09T19:20:58.619Z,79.30
2018-06-09T19:23:26.931Z,79.60
2018-06-09T19:25:55.212Z,80.00
2018-06-09T19:28:23.500Z,80.00
2018-06-09T19:30:51.907Z,79.00
2018-06-09T19:33:20.188Z,74.60
2018-06-09T19:35:48.453Z,74.50
2018-06-09T19:38:16.694Z,72.20
2018-06-09T19:40:45.054Z,70.70
2018-06-09T19:43:13.361Z,70.30
2018-06-09T19:45:41.692Z,71.00
2018-06-09T19:48:10.000Z,71.30
2018-06-09T19:50:38.270Z,72.20
2018-06-09T19:53:07.175Z,72.00
2018-06-09T19:55:35.530Z,72.40
2018-06-09T19:58:03.763Z,72.30
2018-06-09T20:00:32.036Z,72.40
2018-06-09T20:03:00.355Z,72.90
2018-06-09T20:05:28.659Z,73.20
2018-06-09T20:07:56.944Z,72.70
2018-06-09T20:10:25.359Z,73.30
2018-06-09T20:12:53.655Z,73.10
2018-06-09T20:15:21.919Z,72.70
2018-06-09T20:17:50.203Z,72.60
2018-06-09T20:20:18.550Z,72.80
2018-06-09T20:25:15.377Z,74.30
2018-06-09T20:27:43.654Z,76.30
2018-06-09T20:30:11.944Z,75.60
2018-06-09T20:32:40.273Z,76.30
2018-06-09T20:35:08.524Z,76.30
2018-06-09T20:37:37.005Z,76.30
2018-06-09T20:40:05.300Z,76.60
2018-06-09T20:42:33.627Z,76.50
2018-06-09T20:45:01.916Z,76.30
2018-06-09T20:47:30.256Z,75.90
2018-06-09T20:49:58.587Z,76.20
2018-06-09T20:52:26.915Z,76.80
2018-06-09T20:54:55.287Z,76.30
2018-06-09T20:57:23.600Z,76.20
2018-06-09T20:59:51.975Z,75.50
2018-06-09T21:04:48.317Z,74.50
2018-06-09T21:07:16.604Z,75.50
2018-06-09T21:09:44.970Z,75.90
2018-06-09T21:12:13.240Z,75.30
2018-06-09T21:14:41.581Z,74.50
2018-06-09T21:17:09.846Z,74.50
2018-06-09T21:19:38.115Z,75.00
2018-06-09T21:22:06.471Z,75.30
2018-06-09T21:24:34.710Z,75.60
2018-06-09T21:27:08.318Z,75.90
2018-06-09T21:29:41.961Z,75.30
2018-06-09T21:32:10.811Z,75.40
2018-06-09T21:35:03.532Z,76.00
2018-06-09T21:37:37.412Z,76.20
2018-06-09T21:40:09.092Z,76.30
2018-06-09T21:42:41.625Z,76.70
2018-06-09T21:45:11.504Z,77.10
2018-06-09T21:47:39.788Z,77.60
2018-06-09T21:50:08.030Z,78.20
2018-06-09T21:52:36.314Z,78.10
2018-06-09T21:55:04.631Z,78.30
2018-06-09T21:57:32.885Z,78.50
2018-06-09T22:00:01.196Z,78.70
2018-06-09T22:02:29.492Z,78.80
2018-06-09T22:04:57.765Z,78.90
2018-06-09T22:07:26.055Z,79.10
2018-06-09T22:09:54.393Z,79.10
2018-06-09T22:12:22.699Z,79.10
2018-06-09T22:14:50.906Z,79.40
2018-06-09T22:17:19.167Z,79.70
2018-06-09T22:19:47.550Z,79.80
2018-06-09T22:22:15.692Z,80.40
2018-06-09T22:24:44.443Z,80.70
2018-06-09T22:27:12.727Z,80.90
2018-06-09T22:29:41.056Z,81.20
2018-06-09T22:32:09.360Z,81.80
2018-06-09T22:34:37.705Z,81.80
2018-06-09T22:37:05.979Z,81.60
2018-06-09T22:39:34.213Z,81.60
2018-06-09T22:42:02.455Z,81.80
2018-06-09T22:44:30.768Z,81.90
2018-06-09T22:46:59.105Z,81.90
2018-06-09T22:49:27.374Z,81.70
2018-06-09T22:51:55.647Z,81.60
2018-06-09T22:54:23.936Z,81.50
2018-06-09T22:56:52.231Z,81.50
2018-06-09T22:59:20.478Z,81.20
2018-06-09T23:01:48.805Z,80.10
2018-06-09T23:04:17.054Z,79.90
2018-06-09T23:06:45.356Z,80.40
2018-06-09T23:11:42.176Z,81.50
2018-06-09T23:14:10.418Z,81.50
2018-06-09T23:16:38.650Z,81.70
2018-06-09T23:19:06.901Z,81.90
2018-06-09T23:21:35.259Z,81.80
2018-06-09T23:24:03.521Z,81.90
2018-06-09T23:26:31.784Z,81.90
2018-06-09T23:29:00.065Z,81.90
2018-06-09T23:31:28.302Z,82.00
2018-06-09T23:33:56.584Z,82.20
2018-06-09T23:36:24.817Z,82.40
2018-06-09T23:38:53.667Z,82.50
2018-06-09T23:41:21.903Z,82.50
2018-06-09T23:43:50.139Z,82.60
2018-06-09T23:46:18.535Z,82.50
2018-06-09T23:48:47.161Z,82.10
2018-06-09T23:51:15.403Z,82.10
2018-06-09T23:53:43.697Z,82.30
2018-06-09T23:56:11.897Z,82.50
2018-06-09T23:58:40.644Z,82.00
